Terminal Aerodrome Forecast
Issued by NWS

Home | Current Version | Previous Version | Text Only | Print | Product List | Glossary On
Versions: 1 2 3 4 5 6 7 8 9 10 11 12 13 14 15 16 17 18 19 20 21 22
101
FTUS42 KTAE 212329
TAFVLD
TAF
KVLD 212329Z 2200/2224 18009KT P6SM BKN020
     FM220400 19010KT 5SM -RA OVC015
     FM221100 20010KT 3SM TSRA OVC010CB
     FM222100 22012G18KT 6SM -RA OVC015=

USA.gov is the U.S. government's official web portal to all federal, state and local government web resources and services.